createdAt,value
2023-01-20T00:00:36.554Z,4.90
2023-01-20T00:03:10.034Z,4.90
2023-01-20T00:05:54.264Z,4.90
2023-01-20T00:08:27.754Z,4.90
2023-01-20T00:11:05.482Z,4.90
2023-01-20T00:13:39.705Z,4.90
2023-01-20T00:16:14.233Z,4.90
2023-01-20T00:18:48.150Z,4.90
2023-01-20T00:21:23.940Z,4.90
2023-01-20T00:23:57.748Z,4.80
2023-01-20T00:26:31.023Z,4.90
2023-01-20T00:29:04.593Z,4.80
2023-01-20T00:31:38.099Z,4.80
2023-01-20T00:34:12.730Z,4.80
2023-01-20T00:36:48.193Z,4.80
2023-01-20T00:39:22.089Z,4.80
2023-01-20T00:41:55.999Z,4.70
2023-01-20T00:44:29.778Z,4.70
2023-01-20T00:47:03.573Z,4.70
2023-01-20T00:49:37.036Z,4.70
2023-01-20T00:52:11.795Z,4.90
2023-01-20T00:54:45.375Z,4.70
2023-01-20T00:57:18.788Z,4.70
2023-01-20T00:59:52.516Z,4.70
2023-01-20T01:02:26.500Z,4.70
2023-01-20T01:05:00.179Z,4.60
2023-01-20T01:07:35.387Z,4.60
2023-01-20T01:10:11.097Z,4.60
2023-01-20T01:12:44.730Z,4.60
2023-01-20T01:15:18.778Z,4.60
2023-01-20T01:17:53.619Z,4.60
2023-01-20T01:20:28.654Z,4.60
2023-01-20T01:23:03.434Z,4.70
2023-01-20T01:25:38.811Z,4.50
2023-01-20T01:28:12.566Z,4.50
2023-01-20T01:30:46.167Z,4.50
2023-01-20T01:33:19.667Z,4.50
2023-01-20T01:36:00.042Z,4.50
2023-01-20T01:38:34.937Z,4.50
2023-01-20T01:41:09.112Z,4.40
2023-01-20T01:44:05.179Z,4.50
2023-01-20T01:46:39.395Z,4.50
2023-01-20T01:49:19.552Z,4.50
2023-01-20T01:51:59.836Z,4.50
2023-01-20T01:54:40.591Z,4.50
2023-01-20T01:57:14.380Z,4.50
2023-01-20T01:59:48.306Z,4.40
2023-01-20T02:02:24.163Z,4.40
2023-01-20T02:04:59.118Z,4.40
2023-01-20T02:07:36.443Z,4.40
2023-01-20T02:10:13.000Z,4.40
2023-01-20T02:12:51.807Z,4.40
2023-01-20T02:15:34.721Z,4.40
2023-01-20T02:18:40.402Z,4.40
2023-01-20T02:21:56.541Z,4.40
2023-01-20T02:25:26.570Z,4.10
2023-01-20T02:28:45.076Z,4.40
2023-01-20T02:32:12.736Z,4.40
2023-01-20T02:34:59.161Z,4.40
2023-01-20T02:37:46.110Z,4.40
2023-01-20T02:40:46.212Z,4.40
2023-01-20T02:43:29.928Z,4.10
2023-01-20T02:46:13.496Z,4.40
2023-01-20T02:48:56.671Z,4.40
2023-01-20T02:51:42.129Z,4.40
2023-01-20T02:54:19.991Z,4.40
2023-01-20T02:56:57.791Z,4.40
2023-01-20T02:59:37.786Z,4.40
2023-01-20T03:02:18.790Z,4.40
2023-01-20T03:05:01.644Z,4.40
2023-01-20T03:07:41.295Z,4.50
2023-01-20T03:10:21.451Z,4.50
2023-01-20T03:13:00.576Z,4.50
2023-01-20T03:15:51.261Z,4.50
2023-01-20T03:18:24.809Z,4.40
2023-01-20T03:21:01.641Z,4.50
2023-01-20T03:23:39.278Z,4.50
2023-01-20T03:26:15.973Z,4.50
2023-01-20T03:28:50.091Z,4.50
2023-01-20T03:31:29.932Z,4.40
2023-01-20T03:34:11.136Z,4.40
2023-01-20T03:36:48.323Z,4.40
2023-01-20T03:39:22.831Z,4.40
2023-01-20T03:42:09.141Z,4.40
2023-01-20T03:45:04.373Z,4.40
2023-01-20T03:47:57.115Z,4.40
2023-01-20T03:50:40.883Z,4.40
2023-01-20T03:53:31.590Z,4.40
2023-01-20T03:56:13.881Z,4.40
2023-01-20T03:58:52.609Z,4.40
2023-01-20T04:01:33.775Z,4.40
2023-01-20T04:04:14.529Z,4.40
2023-01-20T04:06:51.130Z,4.40
2023-01-20T04:09:33.224Z,4.40
2023-01-20T04:12:07.058Z,4.40
2023-01-20T04:14:40.644Z,4.40
2023-01-20T04:17:15.398Z,4.40
2023-01-20T04:19:49.719Z,4.30
2023-01-20T04:22:31.877Z,4.40
2023-01-20T04:25:16.957Z,4.30
2023-01-20T04:27:50.693Z,4.30
2023-01-20T04:30:24.619Z,4.30
2023-01-20T04:32:57.961Z,4.40
2023-01-20T04:35:31.900Z,4.40
2023-01-20T04:38:05.640Z,4.40
2023-01-20T04:40:40.954Z,4.30
2023-01-20T04:43:15.955Z,4.30
2023-01-20T04:45:49.618Z,4.30
2023-01-20T04:48:23.021Z,4.30
2023-01-20T04:50:56.435Z,4.30
2023-01-20T04:53:29.902Z,4.30
2023-01-20T04:56:05.379Z,4.30
2023-01-20T04:58:38.988Z,4.30
2023-01-20T05:01:12.395Z,4.30
2023-01-20T05:03:46.487Z,4.30
2023-01-20T05:06:20.091Z,4.30
2023-01-20T05:08:53.358Z,4.30
2023-01-20T05:11:28.364Z,4.30
2023-01-20T05:14:01.647Z,4.30
2023-01-20T05:16:35.012Z,4.30
2023-01-20T05:19:08.770Z,4.30
2023-01-20T05:21:42.669Z,4.30
2023-01-20T05:24:16.531Z,4.30
2023-01-20T05:26:51.716Z,4.30
2023-01-20T05:29:25.425Z,4.30
2023-01-20T05:31:59.247Z,4.30
2023-01-20T05:34:33.014Z,4.30
2023-01-20T05:37:06.540Z,4.30
2023-01-20T05:39:40.209Z,4.30
2023-01-20T05:42:15.746Z,4.30
2023-01-20T05:44:50.376Z,4.40
2023-01-20T05:47:24.256Z,4.30
2023-01-20T05:49:57.834Z,4.40
2023-01-20T05:52:31.241Z,4.40
2023-01-20T05:55:05.260Z,4.40
2023-01-20T05:57:40.082Z,4.40
2023-01-20T06:00:15.756Z,4.40
2023-01-20T06:02:49.771Z,4.40
2023-01-20T06:05:23.967Z,4.40
2023-01-20T06:07:58.907Z,4.40
2023-01-20T06:10:32.492Z,4.40
2023-01-20T06:13:07.471Z,4.40
2023-01-20T06:15:41.270Z,4.40
2023-01-20T06:18:14.824Z,4.40
2023-01-20T06:20:48.500Z,4.40
2023-01-20T06:23:22.075Z,4.50
2023-01-20T06:26:01.691Z,4.50
2023-01-20T06:28:37.064Z,4.50
2023-01-20T06:31:13.502Z,4.50
2023-01-20T06:33:47.237Z,4.50
2023-01-20T06:36:20.723Z,4.50
2023-01-20T06:38:55.351Z,4.50
2023-01-20T06:41:28.898Z,4.50
2023-01-20T06:44:04.231Z,4.50
2023-01-20T06:46:37.701Z,4.50
2023-01-20T06:49:11.160Z,4.50
2023-01-20T06:51:44.725Z,4.50
2023-01-20T06:54:18.860Z,4.50
2023-01-20T06:56:52.361Z,4.50
2023-01-20T06:59:27.027Z,4.50
2023-01-20T07:02:00.596Z,4.50
2023-01-20T07:04:33.999Z,4.50
2023-01-20T07:07:07.265Z,4.50
2023-01-20T07:09:41.200Z,4.50
2023-01-20T07:12:15.281Z,4.50
2023-01-20T07:14:50.305Z,4.50
2023-01-20T07:17:24.053Z,4.70
2023-01-20T07:19:57.414Z,4.50
2023-01-20T07:22:30.716Z,4.50
2023-01-20T07:25:04.602Z,4.50
2023-01-20T07:27:38.196Z,4.50
2023-01-20T07:30:15.757Z,4.50
2023-01-20T07:32:49.395Z,4.50
2023-01-20T07:35:22.943Z,4.50
2023-01-20T07:37:56.903Z,4.50
2023-01-20T07:40:30.722Z,4.50
2023-01-20T07:43:05.687Z,4.50
2023-01-20T07:45:40.973Z,4.50
2023-01-20T07:48:14.355Z,4.50
2023-01-20T07:50:48.339Z,4.50
2023-01-20T07:53:22.162Z,4.50
2023-01-20T07:55:55.943Z,4.50
2023-01-20T07:58:30.871Z,4.50
2023-01-20T08:01:15.894Z,4.50
2023-01-20T08:03:49.620Z,4.50
2023-01-20T08:06:26.438Z,4.50
2023-01-20T08:09:02.800Z,4.40
2023-01-20T08:11:37.365Z,4.40
2023-01-20T08:14:10.861Z,4.40
2023-01-20T08:16:45.939Z,4.40
2023-01-20T08:19:19.844Z,4.40
2023-01-20T08:21:53.551Z,4.40
2023-01-20T08:24:27.222Z,4.50
2023-01-20T08:27:00.754Z,4.50
2023-01-20T08:29:34.927Z,4.50
2023-01-20T08:32:09.859Z,4.50
2023-01-20T08:34:43.322Z,4.50
2023-01-20T08:37:16.794Z,4.50
2023-01-20T08:39:50.217Z,4.50
2023-01-20T08:42:23.653Z,4.50
2023-01-20T08:44:56.906Z,4.50
2023-01-20T08:47:32.014Z,4.50
2023-01-20T08:50:08.314Z,4.50
2023-01-20T08:52:42.225Z,4.50
2023-01-20T08:55:16.719Z,4.50
2023-01-20T08:57:50.808Z,4.50
2023-01-20T09:00:25.552Z,4.50
2023-01-20T09:03:01.056Z,4.50
2023-01-20T09:05:37.765Z,4.50
2023-01-20T09:08:11.719Z,4.60
2023-01-20T09:10:46.088Z,4.60
2023-01-20T09:13:19.501Z,4.60
2023-01-20T09:15:54.827Z,4.60
2023-01-20T09:18:29.982Z,4.60
2023-01-20T09:21:06.956Z,4.70
2023-01-20T09:23:42.917Z,4.70
2023-01-20T09:26:29.718Z,4.70
2023-01-20T09:29:12.365Z,4.70
2023-01-20T09:31:51.904Z,4.70
2023-01-20T09:34:29.965Z,4.70
2023-01-20T09:37:18.765Z,4.80
2023-01-20T09:40:09.786Z,4.80
2023-01-20T09:43:19.683Z,4.80
2023-01-20T09:46:02.319Z,4.80
2023-01-20T09:49:04.770Z,4.80
2023-01-20T09:52:08.269Z,4.90
2023-01-20T09:54:48.719Z,4.90
2023-01-20T09:57:26.966Z,4.90
2023-01-20T10:00:09.364Z,4.90
2023-01-20T10:02:49.544Z,4.90
2023-01-20T10:05:33.189Z,4.90
2023-01-20T10:08:18.378Z,5.00
2023-01-20T10:10:58.548Z,5.00
2023-01-20T10:13:40.332Z,5.00
2023-01-20T10:16:23.730Z,5.00
2023-01-20T10:19:03.311Z,5.00
2023-01-20T10:21:43.076Z,5.00
2023-01-20T10:24:26.062Z,5.10
2023-01-20T10:27:03.425Z,5.10
2023-01-20T10:29:40.565Z,5.10
2023-01-20T10:32:25.370Z,5.20
2023-01-20T10:35:04.588Z,5.20
2023-01-20T10:37:38.291Z,5.20
2023-01-20T10:40:35.018Z,5.20
2023-01-20T10:43:14.392Z,5.20
2023-01-20T10:46:28.054Z,5.20
2023-01-20T10:49:33.949Z,5.30
2023-01-20T10:52:27.285Z,5.30
2023-01-20T10:55:19.003Z,5.30
2023-01-20T10:58:03.331Z,5.30
2023-01-20T11:00:37.235Z,5.30
2023-01-20T11:03:18.913Z,5.30
2023-01-20T11:05:54.643Z,5.40
2023-01-20T11:08:31.592Z,5.30
2023-01-20T11:11:15.093Z,5.30
2023-01-20T11:13:51.858Z,5.30
2023-01-20T11:16:32.425Z,5.30
2023-01-20T11:19:08.059Z,5.30
2023-01-20T11:21:41.669Z,5.30
2023-01-20T11:24:44.392Z,5.30
2023-01-20T11:27:22.578Z,5.30
2023-01-20T11:30:05.515Z,5.30
2023-01-20T11:32:40.815Z,5.30
2023-01-20T11:35:24.827Z,5.40
2023-01-20T11:37:58.212Z,5.40
2023-01-20T11:40:31.866Z,5.40
2023-01-20T11:43:06.566Z,5.40
2023-01-20T11:45:42.175Z,5.40
2023-01-20T11:48:21.961Z,5.40
2023-01-20T11:50:58.546Z,5.40
2023-01-20T11:53:33.468Z,5.50
2023-01-20T11:56:18.464Z,5.60
2023-01-20T11:58:57.371Z,5.50
2023-01-20T12:01:57.627Z,5.50
2023-01-20T12:05:11.051Z,5.60
2023-01-20T12:07:49.735Z,5.60
2023-01-20T12:10:27.590Z,5.60
2023-01-20T12:13:12.464Z,5.60
2023-01-20T12:15:53.098Z,5.70
2023-01-20T12:18:38.204Z,5.70
2023-01-20T12:21:18.268Z,5.70
2023-01-20T12:24:03.239Z,5.70
2023-01-20T12:26:37.773Z,5.70
2023-01-20T12:29:22.079Z,5.70
2023-01-20T12:31:55.900Z,5.80
2023-01-20T12:34:32.985Z,5.80
2023-01-20T12:37:21.257Z,5.80
2023-01-20T12:40:17.485Z,5.80
2023-01-20T12:43:22.182Z,5.90
2023-01-20T12:46:38.361Z,5.90
2023-01-20T12:49:42.190Z,6.00
2023-01-20T12:52:32.222Z,6.00
2023-01-20T12:55:24.356Z,6.00
2023-01-20T12:58:12.122Z,6.00
2023-01-20T13:01:24.128Z,6.10
2023-01-20T13:04:50.269Z,6.10
2023-01-20T13:07:51.127Z,6.20
2023-01-20T13:10:48.922Z,6.20
2023-01-20T13:13:56.010Z,6.20
2023-01-20T13:16:43.159Z,6.30
2023-01-20T13:19:20.816Z,6.30
2023-01-20T13:22:07.685Z,6.30
2023-01-20T13:24:46.349Z,6.30
2023-01-20T13:27:28.014Z,6.30
2023-01-20T13:30:04.962Z,6.60
2023-01-20T13:32:45.614Z,6.30
2023-01-20T13:35:46.756Z,6.30
2023-01-20T13:38:27.648Z,6.30
2023-01-20T13:41:03.675Z,6.30
2023-01-20T13:43:52.358Z,6.30
2023-01-20T13:46:49.552Z,6.30
2023-01-20T13:49:31.252Z,6.30
2023-01-20T13:52:05.383Z,6.30
2023-01-20T13:54:47.105Z,6.30
2023-01-20T13:57:47.545Z,6.30
2023-01-20T14:00:22.845Z,6.30
2023-01-20T14:02:56.305Z,6.30
2023-01-20T14:05:34.038Z,6.30
2023-01-20T14:08:15.891Z,6.30
2023-01-20T14:10:51.415Z,6.30
2023-01-20T14:13:26.401Z,6.20
2023-01-20T14:16:00.306Z,6.20
2023-01-20T14:18:35.092Z,6.20
2023-01-20T14:21:21.586Z,6.20
2023-01-20T14:23:55.488Z,6.20
2023-01-20T14:26:33.403Z,6.20
2023-01-20T14:29:07.186Z,6.20
2023-01-20T14:31:45.596Z,6.10
2023-01-20T14:34:27.275Z,6.10
2023-01-20T14:37:18.467Z,6.10
2023-01-20T14:39:53.078Z,6.10
2023-01-20T14:42:31.095Z,6.10
2023-01-20T14:45:18.920Z,6.00
2023-01-20T14:47:53.357Z,6.00
2023-01-20T14:50:27.536Z,6.00
2023-01-20T14:53:01.403Z,6.00
2023-01-20T14:55:37.012Z,6.00
2023-01-20T14:58:18.477Z,6.00
2023-01-20T15:01:03.249Z,5.90
2023-01-20T15:03:36.920Z,5.90
2023-01-20T15:06:24.038Z,5.90
2023-01-20T15:09:06.679Z,5.90
2023-01-20T15:11:40.973Z,5.80
2023-01-20T15:14:16.094Z,5.80
2023-01-20T15:16:53.082Z,5.80
2023-01-20T15:19:37.028Z,5.80
2023-01-20T15:22:22.145Z,5.80
2023-01-20T15:24:56.352Z,5.80
2023-01-20T15:27:33.768Z,5.70
2023-01-20T15:30:21.641Z,5.70
2023-01-20T15:32:56.418Z,5.70
2023-01-20T15:35:30.130Z,5.90
2023-01-20T15:38:03.620Z,5.70
2023-01-20T15:40:39.749Z,5.70
2023-01-20T15:43:17.099Z,5.60
2023-01-20T15:45:52.077Z,5.60
2023-01-20T15:48:25.587Z,5.60
2023-01-20T15:50:59.164Z,5.60
2023-01-20T15:53:33.087Z,5.50
2023-01-20T15:56:07.915Z,5.50
2023-01-20T15:58:41.722Z,5.50
2023-01-20T16:01:20.274Z,5.40
2023-01-20T16:03:55.014Z,5.40
2023-01-20T16:06:33.739Z,5.40
2023-01-20T16:09:21.253Z,5.40
2023-01-20T16:11:55.086Z,5.40
2023-01-20T16:14:28.626Z,5.40
2023-01-20T16:17:03.800Z,5.30
2023-01-20T16:19:38.292Z,5.30
2023-01-20T16:22:13.530Z,5.30
2023-01-20T16:24:49.102Z,5.30
2023-01-20T16:27:24.606Z,5.20
2023-01-20T16:29:58.108Z,5.20
2023-01-20T16:32:33.475Z,5.20
2023-01-20T16:35:08.007Z,5.20
2023-01-20T16:37:42.246Z,5.20
2023-01-20T16:40:19.179Z,5.10
2023-01-20T16:42:57.382Z,5.10
2023-01-20T16:45:31.535Z,5.10
2023-01-20T16:48:09.162Z,5.10
2023-01-20T16:50:42.749Z,5.00
2023-01-20T16:53:16.958Z,5.00
2023-01-20T16:55:51.340Z,5.00
2023-01-20T16:58:24.834Z,5.00
2023-01-20T17:00:58.344Z,4.90
2023-01-20T17:03:33.372Z,4.90
2023-01-20T17:06:12.560Z,4.90
2023-01-20T17:08:46.969Z,4.90
2023-01-20T17:11:21.578Z,4.80
2023-01-20T17:13:56.551Z,4.80
2023-01-20T17:16:30.740Z,4.80
2023-01-20T17:19:06.871Z,4.80
2023-01-20T17:21:40.845Z,4.80
2023-01-20T17:24:14.462Z,4.70
2023-01-20T17:26:48.599Z,4.70
2023-01-20T17:29:22.991Z,4.70
2023-01-20T17:31:56.590Z,4.70
2023-01-20T17:34:31.635Z,4.60
2023-01-20T17:37:04.983Z,4.60
2023-01-20T17:39:38.410Z,4.60
2023-01-20T17:42:12.246Z,4.60
2023-01-20T17:44:45.769Z,4.50
2023-01-20T17:47:19.311Z,4.50
2023-01-20T17:49:54.356Z,4.50
2023-01-20T17:52:29.194Z,4.40
2023-01-20T17:55:04.815Z,4.40
2023-01-20T17:57:38.140Z,4.40
2023-01-20T18:00:13.274Z,4.40
2023-01-20T18:02:47.806Z,4.40
2023-01-20T18:05:23.041Z,4.40
2023-01-20T18:07:56.466Z,4.30
2023-01-20T18:10:29.874Z,4.30
2023-01-20T18:13:03.870Z,4.30
2023-01-20T18:15:42.484Z,4.30
2023-01-20T18:18:15.930Z,4.20
2023-01-20T18:20:50.871Z,4.20
2023-01-20T18:23:24.431Z,4.20
2023-01-20T18:25:58.550Z,4.20
2023-01-20T18:28:32.752Z,4.10
2023-01-20T18:31:09.859Z,4.10
2023-01-20T18:33:47.876Z,4.10
2023-01-20T18:36:25.121Z,4.10
2023-01-20T18:39:01.594Z,4.10
2023-01-20T18:41:37.917Z,4.00
2023-01-20T18:44:12.456Z,4.00
2023-01-20T18:46:46.664Z,4.00
2023-01-20T18:49:20.959Z,4.00
2023-01-20T18:51:56.115Z,3.90
2023-01-20T18:54:32.943Z,3.90
2023-01-20T18:57:08.998Z,3.90
2023-01-20T18:59:43.084Z,3.90
2023-01-20T19:02:16.814Z,3.90
2023-01-20T19:04:50.639Z,3.80
2023-01-20T19:07:25.607Z,3.80
2023-01-20T19:09:59.020Z,3.80
2023-01-20T19:12:32.595Z,3.80
2023-01-20T19:15:08.135Z,3.80
2023-01-20T19:17:41.952Z,3.80
2023-01-20T19:20:15.919Z,3.80
2023-01-20T19:22:51.045Z,3.80
2023-01-20T19:25:29.895Z,3.80
2023-01-20T19:28:05.478Z,3.80
2023-01-20T19:30:39.595Z,3.80
2023-01-20T19:33:13.611Z,3.70
2023-01-20T19:35:47.419Z,3.70
2023-01-20T19:38:22.766Z,3.70
2023-01-20T19:40:56.539Z,3.70
2023-01-20T19:43:29.994Z,3.70
2023-01-20T19:46:03.943Z,3.70
2023-01-20T19:48:38.287Z,3.70
2023-01-20T19:51:15.134Z,3.70
2023-01-20T19:53:55.665Z,3.60
2023-01-20T19:56:32.717Z,3.60
2023-01-20T19:59:08.561Z,3.60
2023-01-20T20:01:42.823Z,3.60
2023-01-20T20:04:20.505Z,3.60
2023-01-20T20:06:54.154Z,3.60
2023-01-20T20:09:29.375Z,3.50
2023-01-20T20:12:06.479Z,3.50
2023-01-20T20:14:39.959Z,3.50
2023-01-20T20:17:13.934Z,3.50
2023-01-20T20:19:47.563Z,3.50
2023-01-20T20:22:21.108Z,3.50
2023-01-20T20:24:55.838Z,3.50
2023-01-20T20:27:30.008Z,3.50
2023-01-20T20:30:06.921Z,3.50
2023-01-20T20:32:40.508Z,3.50
2023-01-20T20:35:14.479Z,3.40
2023-01-20T20:37:49.024Z,3.40
2023-01-20T20:40:25.403Z,3.40
2023-01-20T20:42:58.924Z,3.40
2023-01-20T20:45:33.820Z,3.40
2023-01-20T20:48:09.979Z,3.40
2023-01-20T20:50:43.733Z,3.40
2023-01-20T20:53:18.902Z,3.40
2023-01-20T20:55:59.348Z,3.40
2023-01-20T20:58:33.232Z,3.40
2023-01-20T21:01:09.090Z,3.40
2023-01-20T21:03:43.580Z,3.40
2023-01-20T21:06:18.853Z,3.40
2023-01-20T21:08:52.341Z,3.40
2023-01-20T21:11:28.184Z,3.40
2023-01-20T21:14:01.830Z,3.40
2023-01-20T21:16:36.391Z,3.30
2023-01-20T21:19:09.802Z,3.30
2023-01-20T21:21:43.674Z,3.30
2023-01-20T21:24:17.383Z,3.30
2023-01-20T21:26:52.795Z,3.20
2023-01-20T21:29:27.653Z,3.20
2023-01-20T21:32:01.456Z,3.20
2023-01-20T21:34:34.885Z,3.20
2023-01-20T21:37:08.671Z,3.20
2023-01-20T21:39:43.321Z,3.20
2023-01-20T21:42:18.235Z,3.10
2023-01-20T21:44:53.388Z,3.10
2023-01-20T21:47:27.339Z,3.10
2023-01-20T21:50:18.754Z,3.10
2023-01-20T21:52:52.315Z,3.10
2023-01-20T21:55:25.799Z,3.10
2023-01-20T21:58:00.943Z,3.10
2023-01-20T22:00:34.764Z,3.00
2023-01-20T22:03:08.249Z,3.00
2023-01-20T22:05:42.241Z,3.00
2023-01-20T22:08:15.699Z,3.00
2023-01-20T22:10:57.175Z,3.00
2023-01-20T22:13:31.979Z,3.00
2023-01-20T22:16:06.581Z,3.00
2023-01-20T22:18:40.066Z,3.00
2023-01-20T22:21:13.511Z,3.10
2023-01-20T22:23:47.443Z,3.00
2023-01-20T22:26:21.428Z,3.00
2023-01-20T22:28:56.263Z,3.00
2023-01-20T22:31:31.607Z,3.00
2023-01-20T22:34:06.293Z,3.00
2023-01-20T22:36:40.841Z,2.90
2023-01-20T22:39:16.392Z,2.90
2023-01-20T22:41:49.586Z,2.90
2023-01-20T22:44:25.103Z,2.90
2023-01-20T22:46:58.824Z,2.80
2023-01-20T22:49:32.315Z,2.80
2023-01-20T22:52:06.193Z,2.80
2023-01-20T22:54:39.652Z,2.80
2023-01-20T22:57:13.520Z,3.00
2023-01-20T22:59:48.572Z,2.70
2023-01-20T23:02:22.100Z,2.70
2023-01-20T23:04:55.864Z,2.70
2023-01-20T23:07:30.615Z,2.70
2023-01-20T23:10:04.520Z,2.70
2023-01-20T23:12:38.301Z,2.60
2023-01-20T23:15:13.451Z,2.60
2023-01-20T23:17:47.933Z,2.60
2023-01-20T23:20:21.483Z,2.60
2023-01-20T23:22:55.046Z,2.60
2023-01-20T23:25:28.910Z,2.60
2023-01-20T23:28:02.436Z,2.60
2023-01-20T23:30:37.865Z,2.60
2023-01-20T23:33:12.245Z,2.60
2023-01-20T23:35:45.551Z,2.60
2023-01-20T23:38:18.951Z,2.60
2023-01-20T23:40:52.677Z,2.60
2023-01-20T23:43:26.555Z,2.60
2023-01-20T23:46:05.082Z,2.60
2023-01-20T23:48:39.898Z,2.60
2023-01-20T23:51:13.662Z,2.50
2023-01-20T23:53:47.233Z,2.50
2023-01-20T23:56:23.836Z,2.50
2023-01-20T23:58:57.394Z,2.50
